Terminal Aerodrome Forecast
Issued by NWS

Home | Current Version | Previous Version | Graphics & Text | Print | Product List | Glossary On
Versions: 1 2 3 4 5 6 7 8 9 10 11 12 13
000
FTUS43 KFGF 181728 AAB
TAFBJI
TAF AMD
KBJI 181728Z 1817/1918 27022G31KT P6SM BKN250
     FM190000 27015G22KT P6SM FEW250
     FM190300 27011KT P6SM SKC WS020/28040KT
     FM191200 VRB03KT P6SM SKC
     FM191500 18011KT P6SM FEW200=

USA.gov is the U.S. government's official web portal to all federal, state and local government web resources and services.